Time;durP1;ratioP1;P1;durP2;ratioP2;P2;SDS_P1;SDS_P2;PMS_P1;PMS_P2;Temp;Humidity;BMP_temperature;BMP_pressure;BME280_temperature;BME280_humidity;BME280_pressure;Samples;Min_cycle;Max_cycle;Signal;HPM_P1;HPM_P2
2022/10/14 00:08:22;;;;;;;1999.90;999.90;;;12.90;99.90;;;;;;6735843;88;20210;-75
2022/10/14 00:18:22;;;;;;;1999.90;999.90;;;13.00;99.90;;;;;;6732290;88;20251;-75
2022/10/14 00:28:23;;;;;;;1999.90;999.90;;;12.90;99.90;;;;;;6738794;88;20238;-76
2022/10/14 00:38:24;;;;;;;1999.90;999.90;;;12.90;99.90;;;;;;6735210;88;20211;-75
2022/10/14 00:48:25;;;;;;;1999.90;999.90;;;12.90;99.90;;;;;;6747786;88;20348;-77
2022/10/14 00:58:26;;;;;;;1999.90;999.90;;;13.00;99.90;;;;;;6731770;88;20814;-75
2022/10/14 01:08:34;;;;;;;1999.90;999.90;;;13.00;99.90;;;;;;6733094;88;20203;-76
2022/10/14 01:18:53;;;;;;;1999.90;999.90;;;13.00;99.90;;;;;;6732558;88;20708;-76
2022/10/14 01:29:11;;;;;;;1999.90;999.90;;;13.00;99.90;;;;;;6721646;88;20202;-76
2022/10/14 01:39:24;;;;;;;1999.90;999.90;;;13.10;99.90;;;;;;6729818;88;20222;-75
2022/10/14 01:49:40;;;;;;;1999.90;999.90;;;13.10;99.90;;;;;;6732955;88;20177;-76
2022/10/14 01:59:42;;;;;;;1999.90;999.90;;;13.10;99.90;;;;;;6720119;88;20639;-76
2022/10/14 02:10:05;;;;;;;1999.90;999.90;;;13.10;99.90;;;;;;6731390;88;20232;-75
2022/10/14 02:20:34;;;;;;;1999.90;999.90;;;13.00;99.90;;;;;;6731499;88;20298;-76
2022/10/14 02:30:40;;;;;;;1999.90;999.90;;;12.90;99.90;;;;;;6747992;88;20604;-75
2022/10/14 02:40:45;;;;;;;1999.90;999.90;;;13.00;99.90;;;;;;6750742;88;20247;-76
2022/10/14 02:50:46;;;;;;;1999.90;999.90;;;13.00;99.90;;;;;;6726401;88;20671;-75
2022/10/14 03:00:48;;;;;;;1999.90;999.90;;;13.00;99.90;;;;;;6718201;88;20367;-77
2022/10/14 03:10:49;;;;;;;1999.90;999.90;;;13.00;99.90;;;;;;6711103;88;20209;-76
2022/10/14 03:20:49;;;;;;;1999.90;999.90;;;12.90;99.90;;;;;;6743989;88;20196;-75
2022/10/14 03:30:50;;;;;;;1999.90;999.90;;;12.90;99.90;;;;;;6753136;88;20698;-76
2022/10/14 03:40:50;;;;;;;1999.90;999.90;;;13.00;99.90;;;;;;6734694;88;20208;-76
2022/10/14 03:50:51;;;;;;;1999.90;999.90;;;13.10;99.90;;;;;;6748068;88;20239;-76
2022/10/14 04:00:51;;;;;;;1999.90;999.90;;;13.20;99.90;;;;;;6737630;88;20255;-75
2022/10/14 04:10:53;;;;;;;1999.90;999.90;;;13.30;99.90;;;;;;6741555;88;20188;-75
2022/10/14 04:20:53;;;;;;;1999.90;999.90;;;13.20;99.90;;;;;;6733097;88;20251;-75
2022/10/14 04:30:54;;;;;;;1999.90;999.90;;;13.20;99.90;;;;;;6733330;88;20194;-76
2022/10/14 04:40:55;;;;;;;1999.90;999.90;;;13.30;99.90;;;;;;6731616;88;20222;-75
2022/10/14 04:50:55;;;;;;;1999.90;999.90;;;13.20;99.90;;;;;;6719613;88;20195;-76
2022/10/14 05:00:56;;;;;;;1999.90;999.90;;;13.20;99.90;;;;;;6714955;88;20209;-76
2022/10/14 05:10:56;;;;;;;1999.90;999.90;;;13.20;99.90;;;;;;6727645;88;20816;-76
2022/10/14 05:20:58;;;;;;;1999.90;999.90;;;13.10;99.90;;;;;;6743708;88;20193;-74
2022/10/14 05:30:58;;;;;;;1999.90;999.90;;;13.10;99.90;;;;;;6749628;88;20867;-77
2022/10/14 05:40:59;;;;;;;1999.90;999.90;;;13.10;99.90;;;;;;6753683;88;20439;-75
2022/10/14 05:51:02;;;;;;;1999.90;999.90;;;13.20;99.90;;;;;;6750690;88;20224;-76
2022/10/14 06:01:04;;;;;;;1999.90;999.90;;;13.10;99.90;;;;;;6749015;88;20182;-76
2022/10/14 06:11:06;;;;;;;1999.90;999.90;;;13.00;99.90;;;;;;6750868;88;20199;-75
2022/10/14 06:21:12;;;;;;;1999.90;999.90;;;13.00;99.90;;;;;;6734212;88;20178;-74
2022/10/14 06:31:12;;;;;;;1999.90;999.90;;;13.00;99.90;;;;;;6728126;88;20200;-75
2022/10/14 06:41:13;;;;;;;1999.90;999.90;;;13.10;99.90;;;;;;6739953;88;20618;-76
2022/10/14 06:51:14;;;;;;;1999.90;999.90;;;13.10;99.90;;;;;;6734541;88;20830;-74
2022/10/14 07:01:14;;;;;;;1999.90;999.90;;;13.20;99.90;;;;;;6740873;88;20239;-75
2022/10/14 07:11:15;;;;;;;1999.90;999.90;;;13.30;99.90;;;;;;6750849;88;20209;-75
2022/10/14 07:21:15;;;;;;;1999.90;999.90;;;13.30;99.90;;;;;;6735827;88;20596;-75
2022/10/14 07:31:16;;;;;;;1999.90;999.90;;;13.40;99.90;;;;;;6732933;88;20191;-76
2022/10/14 07:41:23;;;;;;;1999.90;999.90;;;13.50;99.90;;;;;;6733184;88;20311;-75
2022/10/14 07:51:24;;;;;;;1999.90;999.90;;;13.50;99.90;;;;;;6729990;88;20233;-76
2022/10/14 08:01:24;;;;;;;1999.90;999.90;;;13.70;99.90;;;;;;6715300;88;20268;-75
2022/10/14 08:11:27;;;;;;;1999.90;999.90;;;13.80;99.90;;;;;;6732594;88;20214;-75
2022/10/14 08:21:27;;;;;;;1999.90;999.90;;;13.90;99.90;;;;;;6738462;88;20221;-76
2022/10/14 08:31:29;;;;;;;1999.90;999.90;;;14.10;99.90;;;;;;6750595;88;20666;-77
2022/10/14 08:42:07;;;;;;;1999.90;999.90;;;14.20;99.90;;;;;;6752624;88;20230;-76
2022/10/14 08:52:12;;;;;;;1999.90;999.90;;;14.40;99.90;;;;;;6736863;88;20173;-77
2022/10/14 09:02:32;;;;;;;1999.90;999.90;;;14.70;99.90;;;;;;6731924;88;20311;-77
2022/10/14 09:12:34;;;;;;;1999.90;999.90;;;14.80;99.90;;;;;;6731093;88;20365;-78
2022/10/14 09:22:35;;;;;;;1999.90;999.90;;;14.90;99.90;;;;;;6734502;88;20195;-76
2022/10/14 09:32:50;;;;;;;1999.90;999.90;;;14.90;99.90;;;;;;6745919;88;20608;-77
2022/10/14 09:43:10;;;;;;;1999.90;999.90;;;15.00;99.90;;;;;;6737695;88;20954;-77
2022/10/14 09:53:29;;;;;;;1999.90;999.90;;;15.10;99.90;;;;;;6732513;88;20181;-77
2022/10/14 10:03:32;;;;;;;1999.90;999.90;;;15.30;99.90;;;;;;6738752;88;20189;-77
2022/10/14 10:13:37;;;;;;;1999.90;999.90;;;15.30;99.90;;;;;;6734500;88;20976;-77
2022/10/14 10:23:37;;;;;;;1999.90;999.90;;;15.50;99.90;;;;;;6734920;88;20214;-78
2022/10/14 10:33:54;;;;;;;1999.90;999.90;;;15.50;99.90;;;;;;6732146;88;20245;-78
2022/10/14 10:44:19;;;;;;;1999.90;999.90;;;15.60;99.90;;;;;;6715057;88;20736;-76
2022/10/14 10:54:45;;;;;;;1999.90;999.90;;;15.40;99.90;;;;;;6727354;88;20756;-77
2022/10/14 11:05:05;;;;;;;1999.90;999.90;;;15.10;99.90;;;;;;6728861;88;20322;-78
2022/10/14 11:15:26;;;;;;;1999.90;999.90;;;15.10;99.90;;;;;;6736825;88;20184;-75
2022/10/14 11:25:59;;;;;;;1999.90;999.90;;;15.10;99.90;;;;;;6743114;88;20184;-78
2022/10/14 11:36:23;;;;;;;1999.90;999.90;;;15.20;99.90;;;;;;6737209;88;20201;-76
2022/10/14 11:46:29;;;;;;;1999.90;999.90;;;15.20;99.90;;;;;;6733116;88;20227;-77
2022/10/14 11:56:33;;;;;;;1999.90;999.90;;;15.00;99.90;;;;;;6743211;88;20720;-78
2022/10/14 12:07:07;;;;;;;1999.90;999.90;;;15.00;99.90;;;;;;6733552;88;20209;-76
2022/10/14 12:17:21;;;;;;;1999.90;999.90;;;15.10;99.90;;;;;;6728663;88;20214;-75
2022/10/14 12:27:25;;;;;;;1999.90;999.90;;;15.00;99.90;;;;;;6730829;88;20309;-78
2022/10/14 12:37:33;;;;;;;1999.90;999.90;;;15.20;99.90;;;;;;6733399;88;20687;-77
2022/10/14 12:47:35;;;;;;;1999.90;999.90;;;15.10;99.90;;;;;;6740874;88;20568;-78
2022/10/14 12:57:36;;;;;;;1999.90;999.90;;;15.20;99.90;;;;;;6727483;88;20749;-77
2022/10/14 13:07:42;;;;;;;1999.90;999.90;;;15.20;99.90;;;;;;6726799;88;20212;-77
2022/10/14 13:17:45;;;;;;;1999.90;999.90;;;15.30;99.90;;;;;;6731899;88;20210;-76
2022/10/14 13:28:00;;;;;;;1999.90;999.90;;;15.50;99.90;;;;;;6733965;88;20639;-75
2022/10/14 13:38:05;;;;;;;1999.90;999.90;;;15.60;99.90;;;;;;6742600;87;20579;-77
2022/10/14 13:48:13;;;;;;;1999.90;999.90;;;15.70;99.90;;;;;;6717494;88;20379;-78
2022/10/14 13:58:16;;;;;;;1999.90;999.90;;;15.90;99.90;;;;;;6740058;88;20192;-77
2022/10/14 14:08:30;;;;;;;1999.90;999.90;;;16.10;99.90;;;;;;6739674;88;20193;-79
2022/10/14 14:18:39;;;;;;;1999.90;999.90;;;16.30;99.90;;;;;;6730760;88;20201;-78
2022/10/14 14:28:43;;;;;;;1999.90;999.90;;;16.20;99.90;;;;;;6737415;88;20184;-78
2022/10/14 14:38:56;;;;;;;1999.90;999.90;;;16.20;99.90;;;;;;6732028;88;20213;-79
2022/10/14 14:48:58;;;;;;;1999.90;999.90;;;16.30;99.90;;;;;;6729528;88;20222;-77
2022/10/14 14:59:09;;;;;;;1999.90;999.90;;;16.30;99.90;;;;;;6741749;88;20200;-78
2022/10/14 15:09:12;;;;;;;1999.90;999.90;;;16.30;99.90;;;;;;6735972;88;20215;-77
2022/10/14 15:19:21;;;;;;;1999.90;999.90;;;16.20;99.90;;;;;;6734176;88;20321;-77
2022/10/14 15:29:23;;;;;;;1999.90;999.90;;;16.20;99.90;;;;;;6734567;88;20177;-76
2022/10/14 15:39:24;;;;;;;1999.90;999.90;;;16.10;99.90;;;;;;6746074;88;20290;-75
2022/10/14 15:49:30;;;;;;;1999.90;999.90;;;16.20;99.90;;;;;;6732238;88;20225;-77
2022/10/14 15:59:30;;;;;;;1999.90;999.90;;;16.00;99.90;;;;;;6732458;88;20219;-76
2022/10/14 16:09:31;;;;;;;1999.90;999.90;;;16.00;99.90;;;;;;6732131;88;20328;-78
2022/10/14 16:19:32;;;;;;;1999.90;999.90;;;15.90;99.90;;;;;;6744667;88;20221;-78
2022/10/14 16:29:34;;;;;;;1999.90;999.90;;;15.70;99.90;;;;;;6736676;88;20324;-77
2022/10/14 16:39:36;;;;;;;1999.90;999.90;;;15.60;99.90;;;;;;6733142;88;20224;-78
2022/10/14 16:49:37;;;;;;;1999.90;999.90;;;15.70;99.90;;;;;;6731104;88;20273;-79
2022/10/14 16:59:38;;;;;;;1999.90;999.90;;;15.60;99.90;;;;;;6732927;88;20198;-77
2022/10/14 17:09:39;;;;;;;1999.90;999.90;;;15.40;99.90;;;;;;6729750;88;20199;-77
2022/10/14 17:19:40;;;;;;;1999.90;999.90;;;15.40;99.90;;;;;;6733406;88;20181;-78
2022/10/14 17:29:41;;;;;;;1999.90;999.90;;;15.40;99.90;;;;;;6731402;88;20373;-76
2022/10/14 17:39:42;;;;;;;1999.90;999.90;;;15.50;99.90;;;;;;6733992;88;20240;-78
2022/10/14 17:49:42;;;;;;;1999.90;999.90;;;15.40;99.90;;;;;;6734930;88;20180;-78
2022/10/14 17:59:42;;;;;;;1999.90;999.90;;;15.30;99.90;;;;;;6735792;88;21162;-75
2022/10/14 18:09:43;;;;;;;1999.90;999.90;;;15.20;99.90;;;;;;6732855;88;20416;-79
2022/10/14 18:19:43;;;;;;;1999.90;999.90;;;15.20;99.90;;;;;;6730766;88;20316;-76
2022/10/14 18:29:44;;;;;;;1999.90;999.90;;;15.20;99.90;;;;;;6728256;88;20215;-76
2022/10/14 18:39:45;;;;;;;1999.90;999.90;;;15.20;99.90;;;;;;6744669;88;20200;-77
2022/10/14 18:49:47;;;;;;;1999.90;999.90;;;15.30;99.90;;;;;;6732555;88;20224;-76
2022/10/14 18:59:49;;;;;;;1999.90;999.90;;;15.40;99.90;;;;;;6733431;88;20204;-77
2022/10/14 19:09:49;;;;;;;1999.90;999.90;;;15.20;99.90;;;;;;6736197;88;20648;-77
2022/10/14 19:19:50;;;;;;;1999.90;999.90;;;15.10;99.90;;;;;;6734267;88;20211;-76
2022/10/14 19:29:50;;;;;;;1999.90;999.90;;;15.00;99.90;;;;;;6733088;88;20185;-76
2022/10/14 19:39:51;;;;;;;1999.90;999.90;;;15.10;99.90;;;;;;6735842;88;20258;-77
2022/10/14 19:49:51;;;;;;;1999.90;999.90;;;15.10;99.90;;;;;;6746404;88;20224;-77
2022/10/14 19:59:52;;;;;;;1999.90;999.90;;;15.10;99.90;;;;;;6732503;88;20193;-76
2022/10/14 20:09:52;;;;;;;1999.90;999.90;;;15.30;99.90;;;;;;6738867;88;20181;-76
2022/10/14 20:19:53;;;;;;;1999.90;999.90;;;15.30;99.90;;;;;;6727222;88;20189;-77
2022/10/14 20:29:53;;;;;;;1999.90;999.90;;;15.30;99.90;;;;;;6731669;88;20764;-77
2022/10/14 20:39:54;;;;;;;1999.90;999.90;;;15.00;99.90;;;;;;6726190;88;20207;-77
2022/10/14 20:49:55;;;;;;;1999.90;999.90;;;14.80;99.90;;;;;;6726990;88;20242;-75
2022/10/14 20:59:55;;;;;;;1999.90;999.90;;;14.70;99.90;;;;;;6728168;88;20205;-75
2022/10/14 21:09:56;;;;;;;1999.90;999.90;;;14.70;99.90;;;;;;6720941;88;20286;-75
2022/10/14 21:19:56;;;;;;;1999.90;999.90;;;14.50;99.90;;;;;;6722599;88;20299;-75
2022/10/14 21:29:57;;;;;;;1999.90;999.90;;;14.50;99.90;;;;;;6724870;88;20194;-77
2022/10/14 21:39:57;;;;;;;1999.90;999.90;;;14.40;99.90;;;;;;6721989;77;20611;-76
2022/10/14 21:49:58;;;;;;;1999.90;999.90;;;14.40;99.90;;;;;;6678189;88;20664;-77
2022/10/14 21:59:58;;;;;;;1999.90;999.90;;;14.30;99.90;;;;;;6678155;88;20334;-77
2022/10/14 22:09:59;;;;;;;1999.90;999.90;;;14.10;99.90;;;;;;6683079;88;20224;-77
2022/10/14 22:19:59;;;;;;;1999.90;999.90;;;14.20;99.90;;;;;;6681323;88;20187;-77
2022/10/14 22:30:00;;;;;;;1999.90;999.90;;;14.20;99.90;;;;;;6693200;88;20225;-78
2022/10/14 22:40:00;;;;;;;1999.90;999.90;;;14.20;99.90;;;;;;6663167;88;20712;-77
2022/10/14 22:50:01;;;;;;;1999.90;999.90;;;14.20;99.90;;;;;;6700846;88;20223;-78
2022/10/14 23:00:04;;;;;;;1999.90;999.90;;;14.10;99.90;;;;;;6681417;88;20675;-77
2022/10/14 23:10:05;;;;;;;1999.90;999.90;;;14.20;99.90;;;;;;6707870;88;20235;-77
2022/10/14 23:20:06;;;;;;;1999.90;999.90;;;14.10;99.90;;;;;;6698343;88;20361;-77
2022/10/14 23:30:07;;;;;;;1999.90;999.90;;;14.10;99.90;;;;;;6669401;88;20220;-77
2022/10/14 23:40:09;;;;;;;1999.90;999.90;;;14.10;99.90;;;;;;6669627;88;20327;-79
2022/10/14 23:50:09;;;;;;;1999.90;999.90;;;14.10;99.90;;;;;;6664778;88;20630;-79
